createdAt,value
2023-01-18T00:01:22.482Z,5.75
2023-01-18T00:03:50.789Z,5.80
2023-01-18T00:06:18.992Z,5.84
2023-01-18T00:08:47.115Z,5.88
2023-01-18T00:11:17.278Z,5.93
2023-01-18T00:13:46.019Z,5.98
2023-01-18T00:16:20.437Z,6.02
2023-01-18T00:18:54.314Z,6.07
2023-01-18T00:21:24.374Z,6.14
2023-01-18T00:23:53.192Z,6.19
2023-01-18T00:26:21.546Z,6.25
2023-01-18T00:28:50.074Z,6.31
2023-01-18T00:31:21.295Z,6.35
2023-01-18T00:33:50.987Z,6.39
2023-01-18T00:36:20.038Z,6.45
2023-01-18T00:38:52.190Z,6.49
2023-01-18T00:41:21.977Z,6.55
2023-01-18T00:43:51.968Z,6.59
2023-01-18T00:46:25.940Z,6.61
2023-01-18T00:48:55.361Z,6.62
2023-01-18T00:51:25.518Z,6.64
2023-01-18T00:53:54.000Z,6.66
2023-01-18T00:56:23.309Z,6.68
2023-01-18T00:58:52.137Z,6.69
2023-01-18T01:01:21.654Z,6.73
2023-01-18T01:04:09.277Z,6.78
2023-01-18T01:06:47.189Z,6.83
2023-01-18T01:09:23.004Z,6.89
2023-01-18T01:12:11.265Z,6.93
2023-01-18T01:15:01.984Z,6.99
2023-01-18T01:17:51.529Z,7.06
2023-01-18T01:20:39.420Z,7.11
2023-01-18T01:23:34.935Z,7.13
2023-01-18T01:26:13.974Z,7.14
2023-01-18T01:28:45.048Z,7.17
2023-01-18T01:31:15.607Z,7.18
2023-01-18T01:33:50.792Z,7.19
2023-01-18T01:36:21.388Z,7.21
2023-01-18T01:38:49.834Z,7.20
2023-01-18T01:41:25.727Z,7.20
2023-01-18T01:43:58.203Z,7.19
2023-01-18T01:46:39.822Z,7.22
2023-01-18T01:49:19.487Z,7.26
2023-01-18T01:51:56.879Z,7.28
2023-01-18T01:54:32.350Z,7.29
2023-01-18T01:57:26.445Z,7.32
2023-01-18T02:00:12.210Z,7.36
2023-01-18T02:02:42.567Z,7.40
2023-01-18T02:05:13.778Z,7.42
2023-01-18T02:07:42.215Z,7.45
2023-01-18T02:10:12.069Z,7.48
2023-01-18T02:12:42.790Z,7.52
2023-01-18T02:15:11.722Z,7.56
2023-01-18T02:18:01.401Z,7.63
2023-01-18T02:20:44.599Z,7.67
2023-01-18T02:23:31.436Z,7.69
2023-01-18T02:26:21.314Z,7.70
2023-01-18T02:29:07.161Z,7.70
2023-01-18T02:32:05.269Z,7.69
2023-01-18T02:34:49.081Z,7.67
2023-01-18T02:37:28.322Z,7.63
2023-01-18T02:40:12.007Z,7.60
2023-01-18T02:43:02.306Z,7.58
2023-01-18T02:45:49.308Z,7.58
2023-01-18T02:48:21.472Z,7.58
2023-01-18T02:50:51.824Z,7.57
2023-01-18T02:53:20.454Z,7.57
2023-01-18T02:55:56.578Z,7.56
2023-01-18T02:58:34.653Z,7.56
2023-01-18T03:01:12.427Z,7.55
2023-01-18T03:03:44.519Z,7.55
2023-01-18T03:06:13.236Z,7.50
2023-01-18T03:08:54.552Z,7.44
2023-01-18T03:11:34.502Z,7.36
2023-01-18T03:14:27.977Z,7.30
2023-01-18T03:17:17.833Z,7.23
2023-01-18T03:20:09.663Z,7.19
2023-01-18T03:23:10.913Z,7.18
2023-01-18T03:25:42.809Z,7.17
2023-01-18T03:28:36.327Z,7.18
2023-01-18T03:31:28.581Z,7.20
2023-01-18T03:34:30.034Z,7.22
2023-01-18T03:37:03.146Z,7.24
2023-01-18T03:39:39.853Z,7.24
2023-01-18T03:42:30.951Z,7.24
2023-01-18T03:45:05.569Z,7.24
2023-01-18T03:47:34.710Z,7.28
2023-01-18T03:50:03.124Z,7.32
2023-01-18T03:52:43.631Z,7.39
2023-01-18T03:55:20.796Z,7.44
2023-01-18T03:57:56.384Z,7.47
2023-01-18T04:00:25.968Z,7.49
2023-01-18T04:02:54.255Z,7.50
2023-01-18T04:05:22.927Z,7.48
2023-01-18T04:07:51.284Z,7.47
2023-01-18T04:10:19.873Z,7.44
2023-01-18T04:12:48.420Z,7.42
2023-01-18T04:15:16.610Z,7.41
2023-01-18T04:17:44.723Z,7.40
2023-01-18T04:20:13.191Z,7.42
2023-01-18T04:22:41.739Z,7.45
2023-01-18T04:25:10.745Z,7.47
2023-01-18T04:27:39.012Z,7.49
2023-01-18T04:30:08.099Z,7.52
2023-01-18T04:32:36.425Z,7.53
2023-01-18T04:35:05.081Z,7.55
2023-01-18T04:37:34.315Z,7.59
2023-01-18T04:40:02.508Z,7.62
2023-01-18T04:42:31.039Z,7.67
2023-01-18T04:45:00.230Z,7.76
2023-01-18T04:47:29.343Z,7.89
2023-01-18T04:50:00.357Z,8.01
2023-01-18T04:52:32.397Z,8.14
2023-01-18T04:55:00.594Z,8.26
2023-01-18T04:57:29.078Z,8.37
2023-01-18T04:59:57.166Z,8.47
2023-01-18T05:02:25.558Z,8.54
2023-01-18T05:04:54.043Z,8.60
2023-01-18T05:07:25.316Z,8.66
2023-01-18T05:09:54.001Z,8.69
2023-01-18T05:12:22.323Z,8.74
2023-01-18T05:14:50.490Z,8.78
2023-01-18T05:17:18.730Z,8.79
2023-01-18T05:19:48.678Z,8.81
2023-01-18T05:22:19.384Z,8.81
2023-01-18T05:24:48.131Z,8.80
2023-01-18T05:27:17.313Z,8.78
2023-01-18T05:29:48.423Z,8.77
2023-01-18T05:32:17.149Z,8.77
2023-01-18T05:34:45.647Z,8.77
2023-01-18T05:37:14.266Z,8.79
2023-01-18T05:39:42.512Z,8.81
2023-01-18T05:42:10.903Z,8.79
2023-01-18T05:44:39.485Z,8.77
2023-01-18T05:47:07.970Z,8.74
2023-01-18T05:49:36.436Z,8.70
2023-01-18T05:52:05.032Z,8.67
2023-01-18T05:54:33.321Z,8.66
2023-01-18T05:57:01.551Z,8.66
2023-01-18T05:59:30.294Z,8.70
2023-01-18T06:01:59.023Z,8.75
2023-01-18T06:04:27.583Z,8.77
2023-01-18T06:06:56.383Z,8.77
2023-01-18T06:09:25.109Z,8.75
2023-01-18T06:11:53.531Z,8.75
2023-01-18T06:14:22.138Z,8.73
2023-01-18T06:16:51.116Z,8.70
2023-01-18T06:19:19.512Z,8.67
2023-01-18T06:21:47.893Z,8.66
2023-01-18T06:24:16.467Z,8.69
2023-01-18T06:26:45.230Z,8.69
2023-01-18T06:29:13.728Z,8.71
2023-01-18T06:31:42.350Z,8.72
2023-01-18T06:34:10.997Z,8.74
2023-01-18T06:36:41.044Z,8.78
2023-01-18T06:39:10.364Z,8.82
2023-01-18T06:41:39.912Z,8.84
2023-01-18T06:44:08.678Z,8.87
2023-01-18T06:46:38.017Z,8.89
2023-01-18T06:49:07.202Z,8.91
2023-01-18T06:51:35.897Z,8.93
2023-01-18T06:54:04.626Z,8.96
2023-01-18T06:56:33.644Z,8.99
2023-01-18T06:59:02.709Z,9.00
2023-01-18T07:01:31.934Z,8.99
2023-01-18T07:04:01.048Z,9.02
2023-01-18T07:06:30.649Z,9.05
2023-01-18T07:08:59.634Z,9.08
2023-01-18T07:11:29.419Z,9.07
2023-01-18T07:13:58.459Z,9.10
2023-01-18T07:16:28.975Z,9.06
2023-01-18T07:19:00.861Z,9.05
2023-01-18T07:21:30.950Z,9.05
2023-01-18T07:23:59.978Z,9.05
2023-01-18T07:26:28.312Z,9.06
2023-01-18T07:28:56.799Z,9.05
2023-01-18T07:31:25.412Z,9.00
2023-01-18T07:33:54.416Z,8.95
2023-01-18T07:36:23.604Z,8.89
2023-01-18T07:38:53.066Z,8.85
2023-01-18T07:41:23.413Z,8.89
2023-01-18T07:43:54.121Z,8.92
2023-01-18T07:46:23.827Z,8.95
2023-01-18T07:48:53.296Z,9.00
2023-01-18T07:51:22.823Z,9.02
2023-01-18T07:53:55.437Z,9.04
2023-01-18T07:56:26.011Z,9.08
2023-01-18T07:58:54.722Z,9.11
2023-01-18T08:01:24.186Z,9.14
2023-01-18T08:03:54.926Z,9.16
2023-01-18T08:06:26.526Z,9.16
2023-01-18T08:08:56.560Z,9.16
2023-01-18T08:11:25.274Z,9.18
2023-01-18T08:13:54.008Z,9.20
2023-01-18T08:16:26.133Z,9.21
2023-01-18T08:18:55.715Z,9.22
2023-01-18T08:21:26.931Z,9.23
2023-01-18T08:23:56.248Z,9.25
2023-01-18T08:26:25.178Z,9.28
2023-01-18T08:28:54.223Z,9.29
2023-01-18T08:31:24.619Z,9.31
2023-01-18T08:33:54.381Z,9.35
2023-01-18T08:36:25.792Z,9.40
2023-01-18T08:38:59.595Z,9.47
2023-01-18T08:41:32.985Z,9.54
2023-01-18T08:44:02.239Z,9.62
2023-01-18T08:46:31.201Z,9.72
2023-01-18T08:48:59.829Z,9.83
2023-01-18T08:51:28.425Z,9.87
2023-01-18T08:53:57.593Z,9.87
2023-01-18T08:56:27.026Z,9.89
2023-01-18T08:58:55.712Z,9.94
2023-01-18T09:01:25.074Z,9.92
2023-01-18T09:03:55.964Z,9.89
2023-01-18T09:06:25.634Z,9.89
2023-01-18T09:08:54.401Z,9.85
2023-01-18T09:11:23.583Z,9.82
2023-01-18T09:14:01.076Z,9.82
2023-01-18T09:16:32.086Z,9.84
2023-01-18T09:19:01.701Z,9.87
2023-01-18T09:21:30.925Z,9.90
2023-01-18T09:24:00.190Z,9.91
2023-01-18T09:26:30.991Z,9.95
2023-01-18T09:28:59.953Z,10.01
2023-01-18T09:31:29.886Z,10.11
2023-01-18T09:34:17.428Z,10.25
2023-01-18T09:36:51.517Z,10.43
2023-01-18T09:39:22.223Z,10.57
2023-01-18T09:42:05.107Z,10.67
2023-01-18T09:44:40.157Z,10.78
2023-01-18T09:47:26.867Z,10.86
2023-01-18T09:50:02.944Z,10.93
2023-01-18T09:52:34.576Z,10.99
2023-01-18T09:55:13.258Z,11.02
2023-01-18T09:57:47.020Z,10.94
2023-01-18T10:00:25.091Z,10.98
2023-01-18T10:03:19.885Z,10.92
2023-01-18T10:06:16.074Z,10.87
2023-01-18T10:08:54.243Z,10.84
2023-01-18T10:11:32.588Z,10.82
2023-01-18T10:14:18.068Z,10.79
2023-01-18T10:16:57.780Z,10.83
2023-01-18T10:19:32.362Z,10.90
2023-01-18T10:22:12.511Z,10.98
2023-01-18T10:25:02.356Z,11.07
2023-01-18T10:27:39.348Z,11.18
2023-01-18T10:30:29.100Z,11.31
2023-01-18T10:33:03.884Z,11.37
2023-01-18T10:35:41.088Z,11.38
2023-01-18T10:38:15.806Z,11.37
2023-01-18T10:40:55.242Z,11.33
2023-01-18T10:43:26.046Z,11.38
2023-01-18T10:45:54.955Z,11.48
2023-01-18T10:48:28.285Z,11.56
2023-01-18T10:51:03.167Z,11.61
2023-01-18T10:53:36.679Z,11.64
2023-01-18T10:56:17.331Z,11.68
2023-01-18T10:58:55.081Z,11.73
2023-01-18T11:01:33.783Z,11.79
2023-01-18T11:04:22.188Z,11.88
2023-01-18T11:06:55.101Z,11.98
2023-01-18T11:09:55.016Z,11.96
2023-01-18T11:12:48.069Z,11.81
2023-01-18T11:15:16.342Z,11.56
2023-01-18T11:17:50.728Z,11.28
2023-01-18T11:20:25.879Z,11.10
2023-01-18T11:22:59.123Z,10.96
2023-01-18T11:25:38.245Z,10.84
2023-01-18T11:28:29.147Z,10.86
2023-01-18T11:31:00.489Z,10.88
2023-01-18T11:33:31.764Z,10.94
2023-01-18T11:36:02.585Z,11.03
2023-01-18T11:38:33.999Z,11.14
2023-01-18T11:41:06.125Z,11.26
2023-01-18T11:43:38.288Z,11.33
2023-01-18T11:46:26.308Z,11.43
2023-01-18T11:49:18.052Z,11.54
2023-01-18T11:52:03.293Z,11.73
2023-01-18T11:54:50.935Z,11.88
2023-01-18T11:57:20.174Z,11.92
2023-01-18T11:59:49.274Z,11.91
2023-01-18T12:03:14.291Z,11.93
2023-01-18T12:05:55.407Z,12.00
2023-01-18T12:08:27.328Z,11.97
2023-01-18T12:11:29.473Z,11.94
2023-01-18T12:14:06.265Z,11.95
2023-01-18T12:16:56.167Z,11.95
2023-01-18T12:19:45.287Z,11.87
2023-01-18T12:22:26.088Z,11.81
2023-01-18T12:25:22.615Z,11.73
2023-01-18T12:28:33.712Z,11.70
2023-01-18T12:31:11.642Z,11.69
2023-01-18T12:33:52.758Z,11.68
2023-01-18T12:36:52.024Z,11.66
2023-01-18T12:39:39.270Z,11.66
2023-01-18T12:42:22.945Z,11.67
2023-01-18T12:45:16.275Z,11.70
2023-01-18T12:48:07.945Z,11.74
2023-01-18T12:50:39.597Z,11.71
2023-01-18T12:53:23.644Z,11.67
2023-01-18T12:55:55.780Z,11.68
2023-01-18T12:58:27.426Z,11.69
2023-01-18T13:01:02.960Z,11.67
2023-01-18T13:03:43.580Z,11.59
2023-01-18T13:06:15.893Z,11.52
2023-01-18T13:08:55.926Z,11.46
2023-01-18T13:11:27.829Z,11.42
2023-01-18T13:14:09.833Z,11.34
2023-01-18T13:16:47.111Z,11.27
2023-01-18T13:19:32.436Z,11.22
2023-01-18T13:22:04.197Z,11.22
2023-01-18T13:24:32.822Z,11.21
2023-01-18T13:27:15.872Z,11.14
2023-01-18T13:29:45.615Z,11.13
2023-01-18T13:32:25.256Z,11.14
2023-01-18T13:35:18.994Z,11.10
2023-01-18T13:37:54.940Z,11.07
2023-01-18T13:40:24.991Z,11.02
2023-01-18T13:42:53.370Z,10.97
2023-01-18T13:45:28.749Z,10.91
2023-01-18T13:48:00.160Z,10.85
2023-01-18T13:50:28.843Z,10.81
2023-01-18T13:53:24.712Z,10.76
2023-01-18T13:56:21.995Z,10.72
2023-01-18T13:58:56.862Z,10.67
2023-01-18T14:01:32.952Z,10.63
2023-01-18T14:04:29.268Z,10.60
2023-01-18T14:07:02.725Z,10.55
2023-01-18T14:09:45.883Z,10.51
2023-01-18T14:12:15.187Z,10.48
2023-01-18T14:15:02.935Z,10.48
2023-01-18T14:17:34.742Z,10.46
2023-01-18T14:20:23.487Z,10.43
2023-01-18T14:23:18.902Z,10.37
2023-01-18T14:26:11.696Z,10.30
2023-01-18T14:28:59.724Z,10.25
2023-01-18T14:31:33.426Z,10.21
2023-01-18T14:34:26.078Z,10.19
2023-01-18T14:36:56.771Z,10.14
2023-01-18T14:39:26.162Z,10.13
2023-01-18T14:42:00.216Z,10.09
2023-01-18T14:44:56.345Z,10.06
2023-01-18T14:47:30.871Z,10.00
2023-01-18T14:50:03.792Z,9.95
2023-01-18T14:52:34.932Z,9.90
2023-01-18T14:55:03.833Z,9.85
2023-01-18T14:57:32.203Z,9.80
2023-01-18T15:00:16.462Z,9.76
2023-01-18T15:02:46.417Z,9.70
2023-01-18T15:05:20.238Z,9.67
2023-01-18T15:07:55.534Z,9.65
2023-01-18T15:10:24.943Z,9.62
2023-01-18T15:12:58.741Z,9.59
2023-01-18T15:15:32.995Z,9.57
2023-01-18T15:18:10.848Z,9.54
2023-01-18T15:20:52.462Z,9.49
2023-01-18T15:23:24.032Z,9.40
2023-01-18T15:25:54.627Z,9.30
2023-01-18T15:28:29.161Z,9.25
2023-01-18T15:30:57.863Z,9.24
2023-01-18T15:33:28.010Z,9.25
2023-01-18T15:36:01.372Z,9.23
2023-01-18T15:38:30.279Z,9.21
2023-01-18T15:41:04.238Z,9.13
2023-01-18T15:43:42.151Z,9.04
2023-01-18T15:46:16.906Z,8.93
2023-01-18T15:48:52.384Z,8.83
2023-01-18T15:51:23.035Z,8.72
2023-01-18T15:53:56.560Z,8.63
2023-01-18T15:56:33.559Z,8.52
2023-01-18T15:59:10.104Z,8.39
2023-01-18T16:01:38.781Z,8.29
2023-01-18T16:04:12.025Z,8.21
2023-01-18T16:06:41.218Z,8.15
2023-01-18T16:09:12.047Z,8.06
2023-01-18T16:11:41.451Z,7.97
2023-01-18T16:14:46.621Z,7.89
2023-01-18T16:17:19.873Z,7.76
2023-01-18T16:19:53.509Z,7.64
2023-01-18T16:22:29.136Z,7.53
2023-01-18T16:25:01.641Z,7.42
2023-01-18T16:27:32.475Z,7.32
2023-01-18T16:30:18.332Z,7.21
2023-01-18T16:32:47.455Z,7.13
2023-01-18T16:35:18.968Z,7.07
2023-01-18T16:37:48.441Z,7.02
2023-01-18T16:40:22.321Z,6.99
2023-01-18T16:42:59.912Z,6.98
2023-01-18T16:45:31.729Z,7.01
2023-01-18T16:48:00.871Z,7.09
2023-01-18T16:50:30.502Z,7.14
2023-01-18T16:52:59.512Z,7.14
2023-01-18T16:55:28.688Z,7.15
2023-01-18T16:57:57.612Z,7.15
2023-01-18T17:00:34.256Z,7.16
2023-01-18T17:03:03.467Z,7.15
2023-01-18T17:05:31.977Z,7.16
2023-01-18T17:08:02.368Z,7.14
2023-01-18T17:10:39.125Z,7.09
2023-01-18T17:13:07.673Z,7.04
2023-01-18T17:15:41.361Z,7.00
2023-01-18T17:18:26.070Z,6.96
2023-01-18T17:20:56.098Z,6.92
2023-01-18T17:23:25.924Z,6.90
2023-01-18T17:25:54.391Z,6.87
2023-01-18T17:28:23.270Z,6.81
2023-01-18T17:30:52.532Z,6.75
2023-01-18T17:33:24.051Z,6.69
2023-01-18T17:35:54.686Z,6.63
2023-01-18T17:38:29.597Z,6.57
2023-01-18T17:40:59.009Z,6.49
2023-01-18T17:43:33.884Z,6.43
2023-01-18T17:46:05.031Z,6.36
2023-01-18T17:48:34.429Z,6.35
2023-01-18T17:51:07.728Z,6.33
2023-01-18T17:53:38.904Z,6.30
2023-01-18T17:56:12.795Z,6.31
2023-01-18T17:58:41.874Z,6.31
2023-01-18T18:01:12.570Z,6.30
2023-01-18T18:03:45.616Z,6.27
2023-01-18T18:06:26.086Z,6.22
2023-01-18T18:08:59.667Z,6.17
2023-01-18T18:11:28.776Z,6.11
2023-01-18T18:13:59.921Z,6.09
2023-01-18T18:16:30.516Z,6.07
2023-01-18T18:19:00.134Z,6.06
2023-01-18T18:21:29.317Z,6.09
2023-01-18T18:23:58.942Z,6.10
2023-01-18T18:26:27.704Z,6.08
2023-01-18T18:28:55.967Z,6.04
2023-01-18T18:31:24.414Z,5.97
2023-01-18T18:33:52.870Z,5.88
2023-01-18T18:36:22.299Z,5.81
2023-01-18T18:38:50.462Z,5.73
2023-01-18T18:41:19.005Z,5.67
2023-01-18T18:43:47.551Z,5.65
2023-01-18T18:46:16.378Z,5.64
2023-01-18T18:48:45.261Z,5.64
2023-01-18T18:51:14.236Z,5.66
2023-01-18T18:53:42.384Z,5.68
2023-01-18T18:56:10.709Z,5.72
2023-01-18T18:58:40.089Z,5.75
2023-01-18T19:01:24.398Z,5.80
2023-01-18T19:03:53.846Z,5.87
2023-01-18T19:06:24.231Z,5.95
2023-01-18T19:08:53.622Z,5.98
2023-01-18T19:11:21.857Z,5.98
2023-01-18T19:13:50.502Z,5.95
2023-01-18T19:16:18.951Z,5.91
2023-01-18T19:18:47.668Z,5.89
2023-01-18T19:21:16.162Z,5.90
2023-01-18T19:23:45.036Z,5.93
2023-01-18T19:26:13.957Z,5.96
2023-01-18T19:28:42.336Z,6.00
2023-01-18T19:31:12.302Z,6.06
2023-01-18T19:33:40.618Z,6.11
2023-01-18T19:36:15.261Z,6.17
2023-01-18T19:38:47.283Z,6.23
2023-01-18T19:41:18.935Z,6.28
2023-01-18T19:43:50.626Z,6.31
2023-01-18T19:46:20.465Z,6.34
2023-01-18T19:48:48.878Z,6.35
2023-01-18T19:51:22.436Z,6.34
2023-01-18T19:53:55.989Z,6.36
2023-01-18T19:56:29.229Z,6.39
2023-01-18T19:58:59.115Z,6.42
2023-01-18T20:01:36.280Z,6.45
2023-01-18T20:04:13.637Z,6.50
2023-01-18T20:06:45.545Z,6.57
2023-01-18T20:09:19.780Z,6.66
2023-01-18T20:11:50.917Z,6.73
2023-01-18T20:14:19.879Z,6.81
2023-01-18T20:16:49.834Z,6.90
2023-01-18T20:19:20.339Z,7.03
2023-01-18T20:21:50.256Z,7.15
2023-01-18T20:24:18.877Z,7.25
2023-01-18T20:26:48.303Z,7.33
2023-01-18T20:29:17.950Z,7.39
2023-01-18T20:31:50.024Z,7.51
2023-01-18T20:34:21.664Z,7.63
2023-01-18T20:36:50.392Z,7.71
2023-01-18T20:39:19.280Z,7.82
2023-01-18T20:41:50.172Z,7.91
2023-01-18T20:44:18.685Z,8.08
2023-01-18T20:46:51.212Z,8.26
2023-01-18T20:49:24.531Z,8.38
2023-01-18T20:51:55.436Z,8.46
2023-01-18T20:54:23.623Z,8.47
2023-01-18T20:56:51.629Z,8.46
2023-01-18T20:59:20.310Z,8.44
2023-01-18T21:01:48.623Z,8.40
2023-01-18T21:04:16.618Z,8.37
2023-01-18T21:06:44.991Z,8.35
2023-01-18T21:09:13.184Z,8.32
2023-01-18T21:11:41.258Z,8.26
2023-01-18T21:14:09.405Z,8.25
2023-01-18T21:16:37.690Z,8.24
2023-01-18T21:19:05.730Z,8.24
2023-01-18T21:21:33.997Z,8.24
2023-01-18T21:24:01.983Z,8.25
2023-01-18T21:26:30.573Z,8.26
2023-01-18T21:28:59.308Z,8.24
2023-01-18T21:31:27.766Z,8.20
2023-01-18T21:33:56.153Z,8.16
2023-01-18T21:36:24.273Z,8.18
2023-01-18T21:38:52.500Z,8.20
2023-01-18T21:41:39.227Z,8.24
2023-01-18T21:44:26.388Z,8.27
2023-01-18T21:46:54.556Z,8.27
2023-01-18T21:52:48.986Z,8.20
2023-01-18T21:55:18.156Z,8.13
2023-01-18T21:58:06.202Z,8.03
2023-01-18T22:00:37.934Z,7.95
2023-01-18T22:03:06.862Z,7.88
2023-01-18T22:05:35.441Z,7.82
2023-01-18T22:08:03.792Z,7.76
2023-01-18T22:10:32.118Z,7.69
2023-01-18T22:13:00.366Z,7.66
2023-01-18T22:15:28.645Z,7.64
2023-01-18T22:17:56.976Z,7.61
2023-01-18T22:20:25.561Z,7.57
2023-01-18T22:22:54.667Z,7.49
2023-01-18T22:25:23.094Z,7.37
2023-01-18T22:27:51.411Z,7.24
2023-01-18T22:30:19.587Z,7.14
2023-01-18T22:32:47.975Z,7.05
2023-01-18T22:35:16.370Z,6.99
2023-01-18T22:37:44.625Z,6.94
2023-01-18T22:40:12.722Z,6.90
2023-01-18T22:42:41.087Z,6.88
2023-01-18T22:45:09.674Z,6.88
2023-01-18T22:47:38.155Z,6.86
2023-01-18T22:50:07.052Z,6.85
2023-01-18T22:52:35.314Z,6.81
2023-01-18T22:55:04.740Z,6.78
2023-01-18T22:57:32.972Z,6.77
2023-01-18T23:00:01.411Z,6.78
2023-01-18T23:02:29.650Z,6.79
2023-01-18T23:04:57.840Z,6.74
2023-01-18T23:07:26.296Z,6.69
2023-01-18T23:09:54.912Z,6.66
2023-01-18T23:12:23.987Z,6.62
2023-01-18T23:15:10.971Z,6.57
2023-01-18T23:17:39.191Z,6.47
2023-01-18T23:20:15.391Z,6.38
2023-01-18T23:22:45.704Z,6.31
2023-01-18T23:25:14.454Z,6.28
2023-01-18T23:27:42.672Z,6.24
2023-01-18T23:30:12.261Z,6.21
2023-01-18T23:32:41.307Z,6.20
2023-01-18T23:35:09.755Z,6.18
2023-01-18T23:37:38.070Z,6.13
2023-01-18T23:40:26.273Z,6.07
2023-01-18T23:43:12.874Z,6.01
2023-01-18T23:45:59.456Z,5.99
2023-01-18T23:48:46.419Z,5.99
2023-01-18T23:51:33.349Z,5.97
2023-01-18T23:54:16.954Z,5.97
2023-01-18T23:56:46.795Z,5.98
2023-01-18T23:59:15.097Z,6.00
